createdAt,value
2022-10-17T00:00:37.252Z,11.70
2022-10-17T00:03:04.180Z,12.38
2022-10-17T00:05:31.008Z,10.50
2022-10-17T00:07:57.773Z,14.20
2022-10-17T00:10:24.752Z,12.90
2022-10-17T00:12:52.262Z,14.18
2022-10-17T00:15:20.808Z,12.98
2022-10-17T00:17:47.580Z,16.02
2022-10-17T00:20:15.116Z,14.95
2022-10-17T00:22:42.289Z,10.63
2022-10-17T00:25:09.486Z,12.77
2022-10-17T00:27:41.047Z,9.98
2022-10-17T00:30:11.708Z,13.05
2022-10-17T00:32:38.912Z,16.33
2022-10-17T00:35:06.440Z,15.85
2022-10-17T00:37:33.780Z,12.70
2022-10-17T00:40:00.605Z,17.75
2022-10-17T00:42:28.452Z,13.85
2022-10-17T00:45:21.421Z,13.55
2022-10-17T00:47:54.833Z,14.48
2022-10-17T00:50:22.250Z,13.63
2022-10-17T00:52:49.508Z,11.85
2022-10-17T00:55:42.390Z,10.95
2022-10-17T00:58:09.306Z,14.65
2022-10-17T01:00:36.993Z,13.05
2022-10-17T01:03:03.880Z,13.40
2022-10-17T01:05:30.778Z,18.95
2022-10-17T01:07:57.697Z,9.93
2022-10-17T01:10:34.963Z,10.82
2022-10-17T01:13:13.616Z,12.32
2022-10-17T01:16:08.613Z,11.55
2022-10-17T01:19:11.981Z,13.80
2022-10-17T01:21:59.784Z,11.90
2022-10-17T01:24:49.413Z,11.73
2022-10-17T01:27:37.523Z,11.73
2022-10-17T01:30:22.903Z,14.55
2022-10-17T01:33:05.056Z,14.07
2022-10-17T01:35:48.167Z,15.07
2022-10-17T01:38:23.438Z,11.32
2022-10-17T01:41:00.346Z,16.52
2022-10-17T01:44:03.406Z,13.02
2022-10-17T01:46:37.330Z,13.18
2022-10-17T01:49:06.839Z,10.65
2022-10-17T01:51:45.931Z,13.68
2022-10-17T01:54:33.999Z,13.32
2022-10-17T01:57:06.380Z,11.75
2022-10-17T01:59:41.133Z,9.45
2022-10-17T02:02:10.236Z,12.35
2022-10-17T02:04:37.471Z,12.68
2022-10-17T02:07:08.946Z,14.50
2022-10-17T02:09:36.314Z,10.30
2022-10-17T02:12:24.181Z,13.02
2022-10-17T02:15:06.195Z,14.38
2022-10-17T02:18:00.841Z,9.77
2022-10-17T02:20:45.632Z,14.70
2022-10-17T02:26:04.742Z,12.57
2022-10-17T02:29:03.659Z,16.88
2022-10-17T02:31:43.962Z,12.27
2022-10-17T02:34:33.866Z,13.43
2022-10-17T02:37:05.058Z,14.75
2022-10-17T02:39:32.981Z,12.18
2022-10-17T02:42:04.545Z,13.30
2022-10-17T02:44:32.524Z,11.77
2022-10-17T02:47:20.310Z,16.30
2022-10-17T02:49:55.832Z,13.75
2022-10-17T02:52:35.004Z,12.45
2022-10-17T02:55:17.652Z,13.57
2022-10-17T02:57:55.810Z,11.80
2022-10-17T03:00:24.987Z,13.25
2022-10-17T03:02:54.143Z,15.43
2022-10-17T03:05:28.335Z,12.30
2022-10-17T03:07:55.919Z,12.52
2022-10-17T03:10:23.607Z,13.32
2022-10-17T03:12:50.412Z,12.05
2022-10-17T03:15:17.241Z,11.40
2022-10-17T03:17:46.920Z,13.27
2022-10-17T03:20:13.866Z,18.17
2022-10-17T03:22:40.651Z,14.90
2022-10-17T03:25:07.728Z,14.40
2022-10-17T03:27:34.566Z,13.90
2022-10-17T03:30:01.328Z,15.63
2022-10-17T03:32:28.069Z,12.93
2022-10-17T03:34:54.861Z,16.88
2022-10-17T03:37:21.574Z,12.18
2022-10-17T03:39:48.304Z,18.00
2022-10-17T03:42:15.093Z,13.38
2022-10-17T03:44:41.852Z,12.32
2022-10-17T03:47:10.546Z,12.52
2022-10-17T03:49:40.131Z,15.75
2022-10-17T03:52:10.775Z,11.68
2022-10-17T03:54:37.592Z,13.68
2022-10-17T03:57:04.494Z,15.68
2022-10-17T03:59:31.572Z,15.38
2022-10-17T04:01:58.293Z,13.32
2022-10-17T04:04:25.093Z,10.73
2022-10-17T04:06:51.822Z,15.20
2022-10-17T04:09:18.609Z,15.20
2022-10-17T04:11:45.423Z,16.05
2022-10-17T04:14:12.203Z,15.38
2022-10-17T04:16:39.026Z,9.95
2022-10-17T04:19:05.911Z,13.13
2022-10-17T04:21:32.657Z,11.55
2022-10-17T04:24:00.676Z,11.32
2022-10-17T04:26:27.874Z,17.20
2022-10-17T04:28:54.627Z,11.45
2022-10-17T04:31:21.374Z,11.50
2022-10-17T04:33:50.035Z,13.27
2022-10-17T04:36:19.363Z,17.05
2022-10-17T04:38:46.634Z,10.55
2022-10-17T04:41:16.069Z,16.13
2022-10-17T04:43:45.618Z,17.80
2022-10-17T04:46:15.731Z,11.75
2022-10-17T04:48:43.056Z,11.65
2022-10-17T04:51:21.785Z,12.77
2022-10-17T04:53:51.392Z,13.50
2022-10-17T04:56:21.015Z,10.48
2022-10-17T04:58:48.180Z,11.38
2022-10-17T05:01:17.733Z,12.68
2022-10-17T05:03:45.149Z,12.77
2022-10-17T05:06:17.501Z,18.42
2022-10-17T05:08:45.349Z,14.77
2022-10-17T05:11:27.108Z,16.70
2022-10-17T05:13:56.044Z,12.48
2022-10-17T05:16:23.559Z,12.18
2022-10-17T05:18:53.083Z,12.20
2022-10-17T05:21:21.294Z,13.70
2022-10-17T05:23:48.133Z,9.68
2022-10-17T05:26:15.337Z,15.75
2022-10-17T05:28:42.145Z,11.43
2022-10-17T05:31:10.349Z,11.13
2022-10-17T05:33:38.182Z,14.57
2022-10-17T05:36:05.528Z,11.82
2022-10-17T05:38:32.325Z,10.65
2022-10-17T05:41:04.688Z,12.50
2022-10-17T05:43:32.616Z,12.95
2022-10-17T05:45:59.434Z,13.00
2022-10-17T05:48:26.203Z,13.32
2022-10-17T05:50:59.820Z,13.18
2022-10-17T05:53:27.120Z,12.93
2022-10-17T05:55:58.715Z,15.55
2022-10-17T05:58:45.605Z,14.00
2022-10-17T06:01:13.081Z,10.25
2022-10-17T06:03:39.905Z,12.15
2022-10-17T06:06:08.983Z,13.25
2022-10-17T06:08:35.896Z,10.73
2022-10-17T06:11:06.071Z,10.00
2022-10-17T06:13:35.952Z,10.20
2022-10-17T06:16:02.740Z,14.45
2022-10-17T06:18:29.500Z,15.73
2022-10-17T06:21:05.986Z,12.30
2022-10-17T06:23:32.781Z,11.55
2022-10-17T06:26:01.109Z,14.25
2022-10-17T06:28:28.145Z,9.57
2022-10-17T06:30:55.307Z,14.68
2022-10-17T06:33:23.297Z,15.65
2022-10-17T06:35:57.200Z,14.52
2022-10-17T06:38:24.112Z,13.77
2022-10-17T06:40:58.474Z,15.30
2022-10-17T06:43:27.813Z,15.20
2022-10-17T06:45:54.848Z,14.02
2022-10-17T06:48:21.610Z,15.30
2022-10-17T06:50:48.365Z,12.63
2022-10-17T06:53:15.150Z,9.95
2022-10-17T06:55:42.927Z,13.80
2022-10-17T06:58:10.044Z,11.57
2022-10-17T07:00:37.103Z,9.88
2022-10-17T07:03:04.127Z,11.82
2022-10-17T07:05:30.867Z,12.98
2022-10-17T07:07:57.586Z,11.73
2022-10-17T07:10:24.401Z,16.30
2022-10-17T07:12:51.138Z,14.68
2022-10-17T07:15:18.031Z,10.05
2022-10-17T07:17:50.480Z,13.45
2022-10-17T07:20:17.310Z,14.57
2022-10-17T07:22:44.058Z,14.68
2022-10-17T07:25:10.856Z,12.30
2022-10-17T07:27:38.070Z,17.08
2022-10-17T07:30:05.331Z,11.85
2022-10-17T07:32:32.107Z,9.18
2022-10-17T07:34:58.847Z,16.60
2022-10-17T07:37:25.543Z,12.90
2022-10-17T07:39:52.333Z,11.55
2022-10-17T07:42:19.061Z,8.70
2022-10-17T07:44:51.510Z,13.73
2022-10-17T07:47:18.665Z,22.10
2022-10-17T07:49:45.440Z,16.35
2022-10-17T07:52:16.487Z,15.13
2022-10-17T07:54:43.636Z,18.17
2022-10-17T07:57:10.682Z,15.00
2022-10-17T07:59:38.362Z,13.40
2022-10-17T08:02:05.266Z,11.98
2022-10-17T08:04:32.013Z,10.45
2022-10-17T08:07:18.216Z,13.52
2022-10-17T08:09:47.561Z,10.13
2022-10-17T08:12:15.538Z,10.10
2022-10-17T08:14:43.349Z,14.85
2022-10-17T08:17:10.343Z,10.52
2022-10-17T08:19:41.177Z,13.52
2022-10-17T08:22:08.546Z,10.75
2022-10-17T08:24:35.694Z,10.27
2022-10-17T08:27:02.937Z,14.65
2022-10-17T08:29:29.820Z,15.25
2022-10-17T08:32:00.983Z,9.07
2022-10-17T08:34:28.494Z,13.70
2022-10-17T08:36:55.267Z,26.58
2022-10-17T08:39:22.165Z,16.48
2022-10-17T08:42:22.970Z,15.35
2022-10-17T08:45:20.927Z,16.10
2022-10-17T08:48:00.830Z,12.15
2022-10-17T08:50:30.563Z,11.02
2022-10-17T08:53:06.486Z,9.27
2022-10-17T08:55:44.626Z,14.02
2022-10-17T08:58:28.976Z,15.60
2022-10-17T09:01:24.175Z,8.95
2022-10-17T09:04:05.652Z,10.48
2022-10-17T09:06:39.074Z,8.27
2022-10-17T09:09:11.857Z,8.13
2022-10-17T09:12:03.627Z,8.15
2022-10-17T09:15:01.594Z,12.02
2022-10-17T09:17:45.110Z,16.25
2022-10-17T09:20:24.438Z,7.95
2022-10-17T09:23:02.609Z,11.50
2022-10-17T09:25:40.424Z,26.85
2022-10-17T09:28:18.984Z,12.23
2022-10-17T09:30:57.576Z,13.90
2022-10-17T09:33:42.611Z,12.20
2022-10-17T09:36:30.894Z,10.48
2022-10-17T09:39:13.283Z,9.70
2022-10-17T09:41:48.180Z,10.52
2022-10-17T09:44:21.983Z,11.10
2022-10-17T09:47:11.820Z,9.07
2022-10-17T09:49:42.009Z,15.20
2022-10-17T09:52:31.674Z,10.02
2022-10-17T09:55:17.329Z,11.52
2022-10-17T09:58:04.283Z,9.77
2022-10-17T10:00:40.169Z,6.68
2022-10-17T10:03:09.976Z,10.50
2022-10-17T10:05:36.848Z,10.98
2022-10-17T10:08:06.361Z,14.80
2022-10-17T10:10:33.667Z,9.88
2022-10-17T10:13:29.532Z,12.57
2022-10-17T10:16:17.181Z,11.40
2022-10-17T10:18:46.450Z,8.02
2022-10-17T10:21:19.774Z,10.52
2022-10-17T10:24:09.334Z,10.85
2022-10-17T10:26:50.394Z,8.35
2022-10-17T10:29:34.108Z,9.35
2022-10-17T10:32:22.250Z,8.70
2022-10-17T10:35:04.022Z,8.40
2022-10-17T10:37:44.378Z,12.93
2022-10-17T10:40:29.186Z,8.65
2022-10-17T10:43:04.041Z,7.88
2022-10-17T10:45:53.316Z,9.30
2022-10-17T10:48:21.763Z,8.60
2022-10-17T10:50:51.303Z,7.82
2022-10-17T10:53:45.614Z,11.38
2022-10-17T10:56:28.286Z,8.05
2022-10-17T10:58:58.592Z,9.95
2022-10-17T11:01:50.678Z,7.68
2022-10-17T11:04:45.268Z,6.95
2022-10-17T11:07:23.079Z,12.48
2022-10-17T11:10:07.975Z,10.60
2022-10-17T11:12:39.470Z,7.22
2022-10-17T11:15:15.681Z,8.77
2022-10-17T11:17:56.912Z,8.75
2022-10-17T11:20:43.956Z,9.38
2022-10-17T11:23:21.346Z,9.32
2022-10-17T11:25:53.703Z,19.17
2022-10-17T11:28:23.155Z,10.90
2022-10-17T11:30:57.623Z,23.83
2022-10-17T11:33:50.100Z,12.90
2022-10-17T11:36:25.983Z,11.82
2022-10-17T11:39:05.395Z,9.13
2022-10-17T11:41:41.418Z,13.70
2022-10-17T11:44:27.807Z,11.43
2022-10-17T11:47:01.724Z,8.65
2022-10-17T11:49:41.007Z,10.82
2022-10-17T11:52:55.018Z,7.05
2022-10-17T11:55:23.839Z,12.63
2022-10-17T11:58:27.228Z,15.25
2022-10-17T12:01:16.053Z,15.77
2022-10-17T12:03:54.536Z,11.13
2022-10-17T12:06:34.511Z,10.35
2022-10-17T12:09:16.000Z,11.23
2022-10-17T12:11:50.832Z,14.60
2022-10-17T12:14:38.054Z,14.88
2022-10-17T12:17:21.050Z,9.05
2022-10-17T12:19:47.848Z,10.88
2022-10-17T12:22:20.109Z,7.57
2022-10-17T12:25:00.977Z,12.30
2022-10-17T12:27:43.794Z,8.32
2022-10-17T12:30:16.654Z,10.43
2022-10-17T12:33:19.053Z,11.48
2022-10-17T12:35:46.004Z,6.88
2022-10-17T12:38:15.621Z,8.75
2022-10-17T12:40:46.305Z,11.65
2022-10-17T12:43:18.001Z,16.77
2022-10-17T12:45:57.549Z,17.40
2022-10-17T12:48:42.171Z,14.93
2022-10-17T12:51:34.811Z,11.95
2022-10-17T12:54:22.472Z,15.68
2022-10-17T12:56:49.885Z,14.18
2022-10-17T12:59:28.822Z,13.68
2022-10-17T13:01:59.511Z,13.77
2022-10-17T13:04:27.397Z,15.05
2022-10-17T13:06:57.050Z,9.80
2022-10-17T13:09:47.675Z,10.27
2022-10-17T13:12:24.501Z,10.07
2022-10-17T13:14:52.956Z,13.10
2022-10-17T13:17:29.498Z,13.52
2022-10-17T13:19:57.194Z,16.85
2022-10-17T13:22:27.015Z,9.63
2022-10-17T13:25:16.667Z,8.07
2022-10-17T13:27:44.099Z,11.82
2022-10-17T13:30:24.775Z,13.98
2022-10-17T13:32:53.846Z,10.02
2022-10-17T13:35:55.293Z,10.70
2022-10-17T13:40:49.456Z,14.48
2022-10-17T13:43:20.688Z,16.48
2022-10-17T13:45:53.334Z,14.90
2022-10-17T13:48:25.886Z,20.83
2022-10-17T13:50:59.127Z,13.27
2022-10-17T13:53:35.473Z,13.95
2022-10-17T13:58:58.861Z,16.13
2022-10-17T14:01:28.598Z,8.85
2022-10-17T14:04:07.767Z,8.48
2022-10-17T14:06:44.987Z,16.25
2022-10-17T14:09:23.430Z,27.63
2022-10-17T14:12:18.920Z,14.95
2022-10-17T14:15:10.508Z,16.48
2022-10-17T14:17:38.639Z,13.68
2022-10-17T14:20:40.863Z,13.73
2022-10-17T14:23:21.030Z,16.30
2022-10-17T14:25:43.274Z,18.88
2022-10-17T14:28:15.567Z,12.75
2022-10-17T14:30:56.266Z,12.13
2022-10-17T14:33:30.517Z,19.05
2022-10-17T14:35:59.781Z,14.40
2022-10-17T14:38:27.841Z,26.15
2022-10-17T14:41:37.848Z,16.90
2022-10-17T14:44:07.897Z,17.48
2022-10-17T14:46:36.568Z,17.45
2022-10-17T14:49:19.425Z,15.73
2022-10-17T14:52:28.181Z,14.93
2022-10-17T14:54:55.645Z,18.90
2022-10-17T14:57:24.073Z,17.27
2022-10-17T14:59:55.344Z,20.48
2022-10-17T15:02:28.211Z,19.77
2022-10-17T15:04:55.509Z,29.75
2022-10-17T15:07:23.753Z,25.67
2022-10-17T15:09:53.922Z,22.77
2022-10-17T15:12:24.822Z,23.98
2022-10-17T15:14:52.288Z,20.73
2022-10-17T15:17:37.521Z,19.73
2022-10-17T15:20:12.192Z,17.95
2022-10-17T15:22:39.018Z,19.30
2022-10-17T15:25:06.385Z,16.50
2022-10-17T15:27:33.470Z,24.45
2022-10-17T15:30:00.420Z,16.98
2022-10-17T15:32:27.266Z,21.88
2022-10-17T15:34:54.053Z,19.90
2022-10-17T15:37:23.131Z,20.40
2022-10-17T15:39:54.914Z,15.57
2022-10-17T15:42:26.222Z,19.48
2022-10-17T15:44:53.126Z,15.07
2022-10-17T15:47:31.160Z,16.75
2022-10-17T15:49:58.599Z,13.45
2022-10-17T15:52:26.344Z,13.90
2022-10-17T15:54:54.323Z,14.57
2022-10-17T15:57:34.061Z,11.73
2022-10-17T16:00:01.291Z,17.23
2022-10-17T16:02:28.283Z,17.63
2022-10-17T16:04:54.987Z,14.07
2022-10-17T16:07:21.998Z,16.55
2022-10-17T16:09:48.745Z,11.77
2022-10-17T16:12:27.067Z,17.10
2022-10-17T16:14:53.811Z,9.85
2022-10-17T16:17:20.586Z,10.65
2022-10-17T16:19:47.380Z,16.45
2022-10-17T16:22:32.441Z,19.67
2022-10-17T16:25:07.551Z,15.25
2022-10-17T16:27:34.587Z,16.67
2022-10-17T16:30:01.481Z,12.40
2022-10-17T16:32:28.609Z,20.42
2022-10-17T16:34:55.645Z,18.75
2022-10-17T16:37:22.399Z,21.92
2022-10-17T16:39:52.500Z,19.25
2022-10-17T16:42:20.605Z,22.00
2022-10-17T16:44:48.731Z,18.67
2022-10-17T16:47:15.929Z,20.67
2022-10-17T16:49:45.205Z,19.08
2022-10-17T16:52:12.973Z,24.67
2022-10-17T16:54:39.802Z,19.98
2022-10-17T16:57:06.644Z,22.02
2022-10-17T16:59:33.366Z,20.40
2022-10-17T17:02:00.216Z,24.75
2022-10-17T17:04:27.000Z,22.90
2022-10-17T17:06:53.692Z,20.30
2022-10-17T17:09:20.469Z,23.83
2022-10-17T17:11:47.498Z,22.00
2022-10-17T17:14:14.421Z,24.38
2022-10-17T17:16:41.221Z,22.73
2022-10-17T17:19:11.692Z,22.38
2022-10-17T17:21:38.478Z,26.95
2022-10-17T17:24:05.834Z,22.58
2022-10-17T17:26:38.919Z,26.75
2022-10-17T17:29:05.832Z,27.08
2022-10-17T17:31:34.584Z,43.50
2022-10-17T17:34:02.714Z,26.58
2022-10-17T17:36:31.868Z,25.40
2022-10-17T17:39:00.673Z,20.50
2022-10-17T17:41:28.004Z,24.92
2022-10-17T17:43:55.824Z,24.02
2022-10-17T17:46:23.671Z,21.67
2022-10-17T17:48:52.771Z,23.70
2022-10-17T17:51:24.250Z,22.80
2022-10-17T17:53:54.577Z,16.70
2022-10-17T17:56:27.222Z,28.50
2022-10-17T17:59:00.623Z,25.48
2022-10-17T18:01:30.519Z,23.73
2022-10-17T18:04:01.415Z,23.77
2022-10-17T18:06:28.444Z,20.05
2022-10-17T18:09:01.381Z,20.42
2022-10-17T18:11:29.078Z,23.67
2022-10-17T18:14:05.955Z,18.88
2022-10-17T18:16:34.786Z,19.55
2022-10-17T18:19:06.773Z,19.95
2022-10-17T18:21:34.330Z,16.50
2022-10-17T18:24:01.328Z,17.88
2022-10-17T18:26:28.372Z,23.25
2022-10-17T18:28:55.164Z,20.02
2022-10-17T18:31:35.312Z,18.58
2022-10-17T18:34:03.079Z,17.98
2022-10-17T18:36:30.843Z,16.90
2022-10-17T18:38:59.050Z,17.75
2022-10-17T18:41:26.973Z,14.25
2022-10-17T18:43:55.357Z,17.25
2022-10-17T18:46:28.759Z,15.45
2022-10-17T18:48:56.939Z,18.00
2022-10-17T18:51:25.503Z,17.50
2022-10-17T18:53:54.474Z,20.08
2022-10-17T18:56:22.347Z,17.63
2022-10-17T18:58:49.308Z,15.48
2022-10-17T19:01:21.855Z,17.63
2022-10-17T19:03:50.612Z,14.93
2022-10-17T19:06:20.426Z,19.52
2022-10-17T19:08:47.655Z,16.38
2022-10-17T19:11:18.951Z,17.45
2022-10-17T19:16:35.758Z,14.40
2022-10-17T19:19:06.889Z,14.55
2022-10-17T19:21:34.219Z,15.90
2022-10-17T19:24:03.880Z,15.40
2022-10-17T19:26:33.279Z,17.15
2022-10-17T19:29:00.608Z,17.45
2022-10-17T19:31:30.044Z,20.25
2022-10-17T19:33:57.024Z,19.08
2022-10-17T19:36:28.905Z,17.17
2022-10-17T19:38:59.568Z,17.65
2022-10-17T19:41:26.507Z,14.38
2022-10-17T19:43:53.310Z,18.33
2022-10-17T19:46:23.683Z,20.75
2022-10-17T19:48:51.127Z,16.10
2022-10-17T19:51:19.705Z,18.45
2022-10-17T19:53:46.998Z,14.80
2022-10-17T19:56:13.950Z,16.30
2022-10-17T19:58:46.623Z,14.80
2022-10-17T20:01:16.527Z,16.83
2022-10-17T20:03:43.736Z,18.80
2022-10-17T20:06:10.603Z,18.13
2022-10-17T20:08:38.664Z,16.13
2022-10-17T20:11:07.890Z,13.82
2022-10-17T20:13:36.074Z,11.20
2022-10-17T20:16:03.661Z,13.60
2022-10-17T20:18:30.694Z,16.58
2022-10-17T20:21:04.129Z,15.90
2022-10-17T20:23:30.913Z,19.60
2022-10-17T20:26:06.809Z,13.75
2022-10-17T20:28:40.873Z,16.08
2022-10-17T20:31:09.132Z,13.30
2022-10-17T20:33:35.940Z,16.10
2022-10-17T20:36:07.107Z,14.60
2022-10-17T20:38:34.414Z,13.18
2022-10-17T20:41:06.355Z,12.70
2022-10-17T20:43:34.104Z,17.17
2022-10-17T20:46:09.744Z,13.95
2022-10-17T20:48:42.565Z,19.50
2022-10-17T20:51:10.684Z,16.25
2022-10-17T20:53:37.995Z,14.05
2022-10-17T20:56:08.741Z,15.98
2022-10-17T20:58:35.924Z,17.75
2022-10-17T21:01:08.487Z,14.32
2022-10-17T21:03:39.777Z,14.27
2022-10-17T21:06:10.031Z,13.98
2022-10-17T21:08:36.817Z,14.75
2022-10-17T21:11:17.958Z,14.55
2022-10-17T21:13:46.135Z,14.98
2022-10-17T21:16:18.283Z,13.07
2022-10-17T21:18:45.856Z,15.88
2022-10-17T21:21:14.132Z,15.18
2022-10-17T21:23:42.703Z,15.27
2022-10-17T21:26:12.277Z,16.80
2022-10-17T21:28:40.575Z,16.25
2022-10-17T21:31:11.325Z,20.70
2022-10-17T21:33:38.564Z,12.60
2022-10-17T21:36:06.003Z,14.90
2022-10-17T21:38:36.318Z,13.98
2022-10-17T21:41:04.933Z,14.27
2022-10-17T21:43:32.521Z,14.90
2022-10-17T21:46:12.799Z,10.55
2022-10-17T21:48:40.083Z,14.52
2022-10-17T21:51:10.097Z,15.00
2022-10-17T21:53:37.329Z,17.42
2022-10-17T21:56:07.445Z,22.20
2022-10-17T21:58:34.507Z,15.75
2022-10-17T22:01:08.002Z,13.07
2022-10-17T22:03:36.022Z,15.43
2022-10-17T22:06:12.830Z,12.52
2022-10-17T22:08:51.403Z,14.18
2022-10-17T22:11:24.314Z,11.63
2022-10-17T22:14:02.350Z,11.40
2022-10-17T22:16:29.305Z,15.65
2022-10-17T22:19:03.251Z,17.67
2022-10-17T22:21:33.922Z,14.15
2022-10-17T22:24:05.649Z,14.70
2022-10-17T22:26:34.520Z,13.75
2022-10-17T22:29:01.708Z,15.38
2022-10-17T22:31:28.547Z,14.27
2022-10-17T22:33:56.129Z,19.58
2022-10-17T22:36:23.467Z,14.20
2022-10-17T22:38:50.326Z,16.35
2022-10-17T22:41:17.276Z,22.13
2022-10-17T22:43:44.359Z,16.58
2022-10-17T22:46:13.701Z,15.48
2022-10-17T22:48:40.498Z,16.63
2022-10-17T22:51:07.763Z,18.88
2022-10-17T22:53:35.210Z,20.48
2022-10-17T22:56:03.510Z,15.20
2022-10-17T22:58:31.865Z,17.65
2022-10-17T23:00:58.979Z,21.08
2022-10-17T23:03:28.406Z,16.88
2022-10-17T23:05:55.449Z,19.08
2022-10-17T23:08:22.195Z,16.88
2022-10-17T23:10:49.041Z,18.98
2022-10-17T23:13:16.474Z,22.23
2022-10-17T23:15:43.601Z,17.23
2022-10-17T23:18:10.723Z,15.63
2022-10-17T23:20:37.968Z,16.42
2022-10-17T23:23:05.209Z,17.50
2022-10-17T23:25:34.560Z,16.58
2022-10-17T23:28:01.699Z,19.80
2022-10-17T23:30:28.750Z,13.30
2022-10-17T23:32:55.574Z,18.45
2022-10-17T23:35:22.469Z,19.17
2022-10-17T23:37:49.249Z,18.35
2022-10-17T23:40:16.068Z,27.48
2022-10-17T23:42:42.797Z,24.35
2022-10-17T23:45:09.981Z,16.13
2022-10-17T23:47:36.853Z,20.52
2022-10-17T23:50:04.681Z,17.35
2022-10-17T23:52:31.638Z,17.80
2022-10-17T23:54:58.437Z,16.27
2022-10-17T23:57:25.192Z,16.25
2022-10-17T23:59:51.972Z,13.95
